sensor_id;sensor_type;location;lat;lon;timestamp;temperature;humidity
46159;DHT22;31888;44.512;26.104;2022-10-26T00:00:09;16.80;95.80
46159;DHT22;31888;44.512;26.104;2022-10-26T00:02:14;16.70;95.60
46159;DHT22;31888;44.512;26.104;2022-10-26T00:04:18;16.70;95.30
46159;DHT22;31888;44.512;26.104;2022-10-26T00:06:24;16.60;95.40
46159;DHT22;31888;44.512;26.104;2022-10-26T00:08:30;16.60;95.40
46159;DHT22;31888;44.512;26.104;2022-10-26T00:10:36;16.50;95.20
46159;DHT22;31888;44.512;26.104;2022-10-26T00:12:40;16.50;95.30
46159;DHT22;31888;44.512;26.104;2022-10-26T00:14:46;16.50;95.20
46159;DHT22;31888;44.512;26.104;2022-10-26T00:16:50;16.40;95.40
46159;DHT22;31888;44.512;26.104;2022-10-26T00:18:54;16.40;95.40
46159;DHT22;31888;44.512;26.104;2022-10-26T00:21:02;16.50;95.30
46159;DHT22;31888;44.512;26.104;2022-10-26T00:23:07;16.40;95.60
46159;DHT22;31888;44.512;26.104;2022-10-26T00:25:11;16.30;95.80
46159;DHT22;31888;44.512;26.104;2022-10-26T00:27:16;16.20;95.80
46159;DHT22;31888;44.512;26.104;2022-10-26T00:29:20;16.20;96.30
46159;DHT22;31888;44.512;26.104;2022-10-26T00:31:25;16.20;96.60
46159;DHT22;31888;44.512;26.104;2022-10-26T00:33:30;16.20;96.80
46159;DHT22;31888;44.512;26.104;2022-10-26T00:35:35;16.30;97.10
46159;DHT22;31888;44.512;26.104;2022-10-26T00:37:48;16.30;97.20
46159;DHT22;31888;44.512;26.104;2022-10-26T00:39:55;16.40;97.10
46159;DHT22;31888;44.512;26.104;2022-10-26T00:42:02;16.30;96.90
46159;DHT22;31888;44.512;26.104;2022-10-26T00:46:51;16.30;97.60
46159;DHT22;31888;44.512;26.104;2022-10-26T00:48:58;16.30;97.70
46159;DHT22;31888;44.512;26.104;2022-10-26T00:51:05;16.30;97.70
46159;DHT22;31888;44.512;26.104;2022-10-26T00:53:12;16.40;97.90
46159;DHT22;31888;44.512;26.104;2022-10-26T00:55:18;16.30;98.10
46159;DHT22;31888;44.512;26.104;2022-10-26T00:57:24;16.30;98.10
46159;DHT22;31888;44.512;26.104;2022-10-26T00:59:30;16.30;98.10
46159;DHT22;31888;44.512;26.104;2022-10-26T01:01:37;16.20;98.40
46159;DHT22;31888;44.512;26.104;2022-10-26T01:03:44;16.30;98.50
46159;DHT22;31888;44.512;26.104;2022-10-26T01:05:50;16.40;98.60
46159;DHT22;31888;44.512;26.104;2022-10-26T01:07:57;16.40;98.50
46159;DHT22;31888;44.512;26.104;2022-10-26T01:10:02;16.40;98.60
46159;DHT22;31888;44.512;26.104;2022-10-26T01:12:06;16.40;98.70
46159;DHT22;31888;44.512;26.104;2022-10-26T01:14:11;16.40;98.80
46159;DHT22;31888;44.512;26.104;2022-10-26T01:16:30;16.40;98.90
46159;DHT22;31888;44.512;26.104;2022-10-26T01:18:53;16.30;99.10
46159;DHT22;31888;44.512;26.104;2022-10-26T01:21:35;16.30;99.20
46159;DHT22;31888;44.512;26.104;2022-10-26T01:23:55;16.30;99.30
46159;DHT22;31888;44.512;26.104;2022-10-26T01:26:14;16.30;99.40
46159;DHT22;31888;44.512;26.104;2022-10-26T01:28:33;16.20;99.40
46159;DHT22;31888;44.512;26.104;2022-10-26T01:30:44;16.10;99.50
46159;DHT22;31888;44.512;26.104;2022-10-26T01:33:21;16.10;99.70
46159;DHT22;31888;44.512;26.104;2022-10-26T01:35:33;16.10;99.70
46159;DHT22;31888;44.512;26.104;2022-10-26T01:37:45;16.00;99.90
46159;DHT22;31888;44.512;26.104;2022-10-26T01:39:53;16.00;99.70
46159;DHT22;31888;44.512;26.104;2022-10-26T01:41:59;15.90;99.90
46159;DHT22;31888;44.512;26.104;2022-10-26T01:44:09;15.90;99.90
46159;DHT22;31888;44.512;26.104;2022-10-26T01:46:17;16.00;99.90
46159;DHT22;31888;44.512;26.104;2022-10-26T01:48:24;16.00;99.90
46159;DHT22;31888;44.512;26.104;2022-10-26T01:50:29;16.00;99.90
46159;DHT22;31888;44.512;26.104;2022-10-26T01:52:34;16.00;99.90
46159;DHT22;31888;44.512;26.104;2022-10-26T01:54:39;16.00;99.20
46159;DHT22;31888;44.512;26.104;2022-10-26T01:56:45;15.90;99.20
46159;DHT22;31888;44.512;26.104;2022-10-26T01:59:21;15.80;99.20
46159;DHT22;31888;44.512;26.104;2022-10-26T02:01:42;15.70;99.10
46159;DHT22;31888;44.512;26.104;2022-10-26T02:03:56;15.70;99.20
46159;DHT22;31888;44.512;26.104;2022-10-26T02:06:11;15.70;99.20
46159;DHT22;31888;44.512;26.104;2022-10-26T02:08:30;15.80;99.60
46159;DHT22;31888;44.512;26.104;2022-10-26T02:10:45;15.80;99.50
46159;DHT22;31888;44.512;26.104;2022-10-26T02:12:57;15.70;98.90
46159;DHT22;31888;44.512;26.104;2022-10-26T02:15:30;15.70;98.90
46159;DHT22;31888;44.512;26.104;2022-10-26T02:17:45;15.70;98.70
46159;DHT22;31888;44.512;26.104;2022-10-26T02:19:56;15.60;99.00
46159;DHT22;31888;44.512;26.104;2022-10-26T02:22:04;15.60;99.10
46159;DHT22;31888;44.512;26.104;2022-10-26T02:24:11;15.60;98.40
46159;DHT22;31888;44.512;26.104;2022-10-26T02:26:19;15.60;98.50
46159;DHT22;31888;44.512;26.104;2022-10-26T02:28:28;15.60;98.60
46159;DHT22;31888;44.512;26.104;2022-10-26T02:30:34;15.60;98.90
46159;DHT22;31888;44.512;26.104;2022-10-26T02:32:43;15.60;99.00
46159;DHT22;31888;44.512;26.104;2022-10-26T02:34:50;15.70;99.60
46159;DHT22;31888;44.512;26.104;2022-10-26T02:36:57;15.70;99.30
46159;DHT22;31888;44.512;26.104;2022-10-26T02:39:04;15.70;98.90
46159;DHT22;31888;44.512;26.104;2022-10-26T02:41:10;15.60;98.70
46159;DHT22;31888;44.512;26.104;2022-10-26T02:43:17;15.60;99.10
46159;DHT22;31888;44.512;26.104;2022-10-26T02:45:26;15.60;99.20
46159;DHT22;31888;44.512;26.104;2022-10-26T02:47:32;15.50;99.20
46159;DHT22;31888;44.512;26.104;2022-10-26T02:49:38;15.50;99.10
46159;DHT22;31888;44.512;26.104;2022-10-26T02:51:45;15.50;99.10
46159;DHT22;31888;44.512;26.104;2022-10-26T02:53:53;15.50;99.50
46159;DHT22;31888;44.512;26.104;2022-10-26T02:56:07;15.70;99.80
46159;DHT22;31888;44.512;26.104;2022-10-26T02:58:17;15.80;99.90
46159;DHT22;31888;44.512;26.104;2022-10-26T03:00:22;15.80;99.90
46159;DHT22;31888;44.512;26.104;2022-10-26T03:02:29;15.90;99.90
46159;DHT22;31888;44.512;26.104;2022-10-26T03:04:34;15.90;99.90
46159;DHT22;31888;44.512;26.104;2022-10-26T03:06:40;15.90;99.90
46159;DHT22;31888;44.512;26.104;2022-10-26T03:08:44;15.90;99.90
46159;DHT22;31888;44.512;26.104;2022-10-26T03:10:48;15.90;99.90
46159;DHT22;31888;44.512;26.104;2022-10-26T03:12:53;15.90;99.90
46159;DHT22;31888;44.512;26.104;2022-10-26T03:14:57;15.90;99.60
46159;DHT22;31888;44.512;26.104;2022-10-26T03:17:03;15.80;99.70
46159;DHT22;31888;44.512;26.104;2022-10-26T03:19:07;15.80;99.90
46159;DHT22;31888;44.512;26.104;2022-10-26T03:21:12;15.80;99.90
46159;DHT22;31888;44.512;26.104;2022-10-26T03:23:18;15.80;99.90
46159;DHT22;31888;44.512;26.104;2022-10-26T03:25:24;15.90;99.90
46159;DHT22;31888;44.512;26.104;2022-10-26T03:27:29;15.80;99.50
46159;DHT22;31888;44.512;26.104;2022-10-26T03:29:33;15.80;99.00
46159;DHT22;31888;44.512;26.104;2022-10-26T03:31:37;15.70;99.20
46159;DHT22;31888;44.512;26.104;2022-10-26T03:33:41;15.60;99.50
46159;DHT22;31888;44.512;26.104;2022-10-26T03:35:45;15.50;99.90
46159;DHT22;31888;44.512;26.104;2022-10-26T03:37:50;15.30;99.90
46159;DHT22;31888;44.512;26.104;2022-10-26T03:39:55;15.20;99.90
46159;DHT22;31888;44.512;26.104;2022-10-26T03:42:00;15.20;99.90
46159;DHT22;31888;44.512;26.104;2022-10-26T03:44:04;15.20;99.90
46159;DHT22;31888;44.512;26.104;2022-10-26T03:46:08;15.30;99.90
46159;DHT22;31888;44.512;26.104;2022-10-26T03:48:13;15.20;99.90
46159;DHT22;31888;44.512;26.104;2022-10-26T03:50:19;15.20;99.90
46159;DHT22;31888;44.512;26.104;2022-10-26T03:52:24;15.20;99.90
46159;DHT22;31888;44.512;26.104;2022-10-26T03:54:28;15.20;99.90
46159;DHT22;31888;44.512;26.104;2022-10-26T03:56:34;15.20;99.90
46159;DHT22;31888;44.512;26.104;2022-10-26T03:58:38;15.10;99.90
46159;DHT22;31888;44.512;26.104;2022-10-26T04:00:43;15.00;99.90
46159;DHT22;31888;44.512;26.104;2022-10-26T04:02:53;14.90;99.90
46159;DHT22;31888;44.512;26.104;2022-10-26T04:04:57;14.90;99.90
46159;DHT22;31888;44.512;26.104;2022-10-26T04:07:02;14.90;99.90
46159;DHT22;31888;44.512;26.104;2022-10-26T04:09:07;15.00;99.90
46159;DHT22;31888;44.512;26.104;2022-10-26T04:11:11;15.00;99.90
46159;DHT22;31888;44.512;26.104;2022-10-26T04:13:16;14.90;99.90
46159;DHT22;31888;44.512;26.104;2022-10-26T04:15:21;14.90;99.90
46159;DHT22;31888;44.512;26.104;2022-10-26T04:17:26;14.90;99.90
46159;DHT22;31888;44.512;26.104;2022-10-26T04:19:31;14.90;99.90
46159;DHT22;31888;44.512;26.104;2022-10-26T04:21:35;14.80;99.90
46159;DHT22;31888;44.512;26.104;2022-10-26T04:23:40;14.80;99.90
46159;DHT22;31888;44.512;26.104;2022-10-26T04:25:44;14.70;99.90
46159;DHT22;31888;44.512;26.104;2022-10-26T04:27:48;14.60;99.90
46159;DHT22;31888;44.512;26.104;2022-10-26T04:29:55;14.60;99.90
46159;DHT22;31888;44.512;26.104;2022-10-26T04:31:59;14.60;99.90
46159;DHT22;31888;44.512;26.104;2022-10-26T04:34:03;14.60;99.90
46159;DHT22;31888;44.512;26.104;2022-10-26T04:36:08;14.60;99.90
46159;DHT22;31888;44.512;26.104;2022-10-26T04:38:13;14.70;99.90
46159;DHT22;31888;44.512;26.104;2022-10-26T04:40:17;14.70;99.90
46159;DHT22;31888;44.512;26.104;2022-10-26T04:42:21;14.90;99.90
46159;DHT22;31888;44.512;26.104;2022-10-26T04:44:26;14.80;99.90
46159;DHT22;31888;44.512;26.104;2022-10-26T04:46:43;14.70;99.90
46159;DHT22;31888;44.512;26.104;2022-10-26T04:48:49;14.60;99.90
46159;DHT22;31888;44.512;26.104;2022-10-26T04:50:57;14.70;99.90
46159;DHT22;31888;44.512;26.104;2022-10-26T04:53:01;14.60;99.90
46159;DHT22;31888;44.512;26.104;2022-10-26T04:55:06;14.60;99.90
46159;DHT22;31888;44.512;26.104;2022-10-26T04:57:11;14.50;99.90
46159;DHT22;31888;44.512;26.104;2022-10-26T04:59:15;14.40;99.90
46159;DHT22;31888;44.512;26.104;2022-10-26T05:01:19;14.30;99.90
46159;DHT22;31888;44.512;26.104;2022-10-26T05:03:25;14.30;99.90
46159;DHT22;31888;44.512;26.104;2022-10-26T05:05:32;14.50;99.90
46159;DHT22;31888;44.512;26.104;2022-10-26T05:07:37;15.00;99.90
46159;DHT22;31888;44.512;26.104;2022-10-26T05:09:41;15.50;99.90
46159;DHT22;31888;44.512;26.104;2022-10-26T05:11:46;16.00;99.90
46159;DHT22;31888;44.512;26.104;2022-10-26T05:13:50;16.20;99.70
46159;DHT22;31888;44.512;26.104;2022-10-26T05:15:54;16.60;99.00
46159;DHT22;31888;44.512;26.104;2022-10-26T05:18:00;17.10;97.60
46159;DHT22;31888;44.512;26.104;2022-10-26T05:20:08;17.40;96.70
46159;DHT22;31888;44.512;26.104;2022-10-26T05:22:15;17.60;95.90
46159;DHT22;31888;44.512;26.104;2022-10-26T05:24:19;18.00;95.80
46159;DHT22;31888;44.512;26.104;2022-10-26T05:26:24;18.20;94.60
46159;DHT22;31888;44.512;26.104;2022-10-26T05:28:28;18.10;94.80
46159;DHT22;31888;44.512;26.104;2022-10-26T05:30:33;17.80;94.90
46159;DHT22;31888;44.512;26.104;2022-10-26T05:32:37;17.20;95.90
46159;DHT22;31888;44.512;26.104;2022-10-26T05:34:41;16.80;96.90
46159;DHT22;31888;44.512;26.104;2022-10-26T05:36:47;16.50;97.60
46159;DHT22;31888;44.512;26.104;2022-10-26T05:38:51;16.40;98.30
46159;DHT22;31888;44.512;26.104;2022-10-26T05:40:55;16.20;98.90
46159;DHT22;31888;44.512;26.104;2022-10-26T05:43:01;16.10;99.20
46159;DHT22;31888;44.512;26.104;2022-10-26T05:45:06;16.10;99.40
46159;DHT22;31888;44.512;26.104;2022-10-26T05:47:11;15.90;99.60
46159;DHT22;31888;44.512;26.104;2022-10-26T05:49:15;15.90;99.90
46159;DHT22;31888;44.512;26.104;2022-10-26T05:51:19;15.80;99.90
46159;DHT22;31888;44.512;26.104;2022-10-26T05:53:25;15.90;99.90
46159;DHT22;31888;44.512;26.104;2022-10-26T05:55:30;15.90;99.90
46159;DHT22;31888;44.512;26.104;2022-10-26T05:57:35;16.00;99.90
46159;DHT22;31888;44.512;26.104;2022-10-26T05:59:40;16.20;99.90
46159;DHT22;31888;44.512;26.104;2022-10-26T06:01:56;16.50;99.90
46159;DHT22;31888;44.512;26.104;2022-10-26T06:04:18;17.10;99.70
46159;DHT22;31888;44.512;26.104;2022-10-26T06:06:24;17.70;98.20
46159;DHT22;31888;44.512;26.104;2022-10-26T06:08:32;17.80;97.70
46159;DHT22;31888;44.512;26.104;2022-10-26T06:10:37;17.90;97.60
46159;DHT22;31888;44.512;26.104;2022-10-26T06:12:42;17.90;97.20
46159;DHT22;31888;44.512;26.104;2022-10-26T06:14:47;17.80;97.20
46159;DHT22;31888;44.512;26.104;2022-10-26T06:17:00;17.70;97.50
46159;DHT22;31888;44.512;26.104;2022-10-26T06:19:15;17.60;98.30
46159;DHT22;31888;44.512;26.104;2022-10-26T06:21:32;17.90;98.10
46159;DHT22;31888;44.512;26.104;2022-10-26T06:23:48;18.40;97.20
46159;DHT22;31888;44.512;26.104;2022-10-26T06:26:00;18.80;96.30
46159;DHT22;31888;44.512;26.104;2022-10-26T06:28:15;19.00;95.80
46159;DHT22;31888;44.512;26.104;2022-10-26T06:30:22;19.10;95.40
46159;DHT22;31888;44.512;26.104;2022-10-26T06:32:27;19.10;95.10
46159;DHT22;31888;44.512;26.104;2022-10-26T06:34:33;18.90;95.40
46159;DHT22;31888;44.512;26.104;2022-10-26T06:36:38;18.70;95.80
46159;DHT22;31888;44.512;26.104;2022-10-26T06:38:47;18.60;96.00
46159;DHT22;31888;44.512;26.104;2022-10-26T06:40:52;18.60;96.50
46159;DHT22;31888;44.512;26.104;2022-10-26T06:42:58;18.80;96.40
46159;DHT22;31888;44.512;26.104;2022-10-26T06:45:03;19.30;95.60
46159;DHT22;31888;44.512;26.104;2022-10-26T06:47:16;19.80;94.70
46159;DHT22;31888;44.512;26.104;2022-10-26T06:49:30;20.20;94.10
46159;DHT22;31888;44.512;26.104;2022-10-26T06:51:40;21.00;92.90
46159;DHT22;31888;44.512;26.104;2022-10-26T06:53:54;21.40;92.20
46159;DHT22;31888;44.512;26.104;2022-10-26T06:56:00;21.70;91.10
46159;DHT22;31888;44.512;26.104;2022-10-26T06:58:08;22.00;90.30
46159;DHT22;31888;44.512;26.104;2022-10-26T07:00:18;22.10;89.60
46159;DHT22;31888;44.512;26.104;2022-10-26T07:02:25;22.20;89.10
46159;DHT22;31888;44.512;26.104;2022-10-26T07:04:30;22.10;89.50
46159;DHT22;31888;44.512;26.104;2022-10-26T07:06:34;22.20;90.00
46159;DHT22;31888;44.512;26.104;2022-10-26T07:08:41;22.60;89.20
46159;DHT22;31888;44.512;26.104;2022-10-26T07:10:47;22.90;88.00
46159;DHT22;31888;44.512;26.104;2022-10-26T07:12:51;23.10;85.80
46159;DHT22;31888;44.512;26.104;2022-10-26T07:14:55;23.40;84.90
46159;DHT22;31888;44.512;26.104;2022-10-26T07:16:59;23.20;84.80
46159;DHT22;31888;44.512;26.104;2022-10-26T07:19:04;23.10;84.20
46159;DHT22;31888;44.512;26.104;2022-10-26T07:21:08;22.70;85.60
46159;DHT22;31888;44.512;26.104;2022-10-26T07:23:12;22.60;86.30
46159;DHT22;31888;44.512;26.104;2022-10-26T07:25:17;22.50;85.20
46159;DHT22;31888;44.512;26.104;2022-10-26T07:27:23;22.50;84.80
46159;DHT22;31888;44.512;26.104;2022-10-26T07:29:28;22.30;85.00
46159;DHT22;31888;44.512;26.104;2022-10-26T07:31:32;22.60;84.50
46159;DHT22;31888;44.512;26.104;2022-10-26T07:33:36;22.70;84.50
46159;DHT22;31888;44.512;26.104;2022-10-26T07:35:43;22.80;83.50
46159;DHT22;31888;44.512;26.104;2022-10-26T07:37:47;23.00;82.40
46159;DHT22;31888;44.512;26.104;2022-10-26T07:39:51;23.20;81.90
46159;DHT22;31888;44.512;26.104;2022-10-26T07:41:55;23.40;81.00
46159;DHT22;31888;44.512;26.104;2022-10-26T07:44:01;23.60;80.90
46159;DHT22;31888;44.512;26.104;2022-10-26T07:46:05;24.00;79.50
46159;DHT22;31888;44.512;26.104;2022-10-26T07:48:10;24.00;78.50
46159;DHT22;31888;44.512;26.104;2022-10-26T07:50:14;23.70;79.50
46159;DHT22;31888;44.512;26.104;2022-10-26T07:52:18;24.00;79.70
46159;DHT22;31888;44.512;26.104;2022-10-26T07:54:22;24.10;78.50
46159;DHT22;31888;44.512;26.104;2022-10-26T07:56:27;24.10;76.90
46159;DHT22;31888;44.512;26.104;2022-10-26T07:58:31;24.20;76.90
46159;DHT22;31888;44.512;26.104;2022-10-26T08:00:37;24.40;76.90
46159;DHT22;31888;44.512;26.104;2022-10-26T08:02:41;24.60;76.30
46159;DHT22;31888;44.512;26.104;2022-10-26T08:04:46;24.70;75.80
46159;DHT22;31888;44.512;26.104;2022-10-26T08:06:51;24.80;75.00
46159;DHT22;31888;44.512;26.104;2022-10-26T08:08:55;24.50;75.20
46159;DHT22;31888;44.512;26.104;2022-10-26T08:11:00;24.40;75.40
46159;DHT22;31888;44.512;26.104;2022-10-26T08:13:05;24.50;75.20
46159;DHT22;31888;44.512;26.104;2022-10-26T08:15:09;24.60;75.10
46159;DHT22;31888;44.512;26.104;2022-10-26T08:17:15;24.30;74.70
46159;DHT22;31888;44.512;26.104;2022-10-26T08:19:19;24.20;75.70
46159;DHT22;31888;44.512;26.104;2022-10-26T08:21:23;23.90;76.20
46159;DHT22;31888;44.512;26.104;2022-10-26T08:23:41;23.80;76.60
46159;DHT22;31888;44.512;26.104;2022-10-26T08:25:46;23.80;76.40
46159;DHT22;31888;44.512;26.104;2022-10-26T08:27:51;24.00;75.70
46159;DHT22;31888;44.512;26.104;2022-10-26T08:29:56;24.00;76.30
46159;DHT22;31888;44.512;26.104;2022-10-26T08:32:01;24.20;75.30
46159;DHT22;31888;44.512;26.104;2022-10-26T08:34:07;24.30;74.60
46159;DHT22;31888;44.512;26.104;2022-10-26T08:36:12;24.40;74.80
46159;DHT22;31888;44.512;26.104;2022-10-26T08:38:21;24.50;75.20
46159;DHT22;31888;44.512;26.104;2022-10-26T08:40:30;24.50;74.80
46159;DHT22;31888;44.512;26.104;2022-10-26T08:42:41;24.50;75.10
46159;DHT22;31888;44.512;26.104;2022-10-26T08:44:47;24.50;74.80
46159;DHT22;31888;44.512;26.104;2022-10-26T08:46:56;24.20;75.00
46159;DHT22;31888;44.512;26.104;2022-10-26T08:49:07;24.20;75.40
46159;DHT22;31888;44.512;26.104;2022-10-26T08:51:17;24.10;75.10
46159;DHT22;31888;44.512;26.104;2022-10-26T08:53:27;23.90;75.60
46159;DHT22;31888;44.512;26.104;2022-10-26T08:55:39;24.00;75.40
46159;DHT22;31888;44.512;26.104;2022-10-26T08:57:46;24.10;75.50
46159;DHT22;31888;44.512;26.104;2022-10-26T08:59:56;24.20;75.50
46159;DHT22;31888;44.512;26.104;2022-10-26T09:02:01;24.10;75.60
46159;DHT22;31888;44.512;26.104;2022-10-26T09:04:09;24.10;75.20
46159;DHT22;31888;44.512;26.104;2022-10-26T09:06:22;24.30;75.00
46159;DHT22;31888;44.512;26.104;2022-10-26T09:08:34;24.40;74.40
46159;DHT22;31888;44.512;26.104;2022-10-26T09:10:49;24.50;74.00
46159;DHT22;31888;44.512;26.104;2022-10-26T09:13:02;24.50;73.90
46159;DHT22;31888;44.512;26.104;2022-10-26T09:15:14;24.60;73.20
46159;DHT22;31888;44.512;26.104;2022-10-26T09:17:34;24.20;74.40
46159;DHT22;31888;44.512;26.104;2022-10-26T09:22:26;23.90;74.70
46159;DHT22;31888;44.512;26.104;2022-10-26T09:24:38;24.00;74.80
46159;DHT22;31888;44.512;26.104;2022-10-26T09:26:52;24.00;74.70
46159;DHT22;31888;44.512;26.104;2022-10-26T09:29:01;24.00;74.60
46159;DHT22;31888;44.512;26.104;2022-10-26T09:31:11;24.20;74.40
46159;DHT22;31888;44.512;26.104;2022-10-26T09:33:21;24.30;73.60
46159;DHT22;31888;44.512;26.104;2022-10-26T09:35:30;24.30;73.40
46159;DHT22;31888;44.512;26.104;2022-10-26T09:37:43;24.40;73.50
46159;DHT22;31888;44.512;26.104;2022-10-26T09:39:59;24.40;73.40
46159;DHT22;31888;44.512;26.104;2022-10-26T09:42:15;24.50;73.10
46159;DHT22;31888;44.512;26.104;2022-10-26T09:44:26;24.60;73.00
46159;DHT22;31888;44.512;26.104;2022-10-26T09:46:33;24.70;72.70
46159;DHT22;31888;44.512;26.104;2022-10-26T09:48:40;24.50;73.00
46159;DHT22;31888;44.512;26.104;2022-10-26T09:50:48;24.30;73.70
46159;DHT22;31888;44.512;26.104;2022-10-26T09:52:55;24.20;73.50
46159;DHT22;31888;44.512;26.104;2022-10-26T09:55:00;24.20;73.80
46159;DHT22;31888;44.512;26.104;2022-10-26T09:57:06;24.20;73.30
46159;DHT22;31888;44.512;26.104;2022-10-26T09:59:11;24.20;73.30
46159;DHT22;31888;44.512;26.104;2022-10-26T10:01:21;24.20;73.10
46159;DHT22;31888;44.512;26.104;2022-10-26T10:03:32;24.30;72.80
46159;DHT22;31888;44.512;26.104;2022-10-26T10:05:36;24.20;72.70
46159;DHT22;31888;44.512;26.104;2022-10-26T10:08:17;24.40;72.00
46159;DHT22;31888;44.512;26.104;2022-10-26T10:10:22;24.60;71.30
46159;DHT22;31888;44.512;26.104;2022-10-26T10:12:26;24.40;71.70
46159;DHT22;31888;44.512;26.104;2022-10-26T10:14:32;24.40;71.90
46159;DHT22;31888;44.512;26.104;2022-10-26T10:16:49;24.40;72.00
46159;DHT22;31888;44.512;26.104;2022-10-26T10:18:55;24.50;71.50
46159;DHT22;31888;44.512;26.104;2022-10-26T10:21:01;24.60;71.90
46159;DHT22;31888;44.512;26.104;2022-10-26T10:23:25;24.50;72.00
46159;DHT22;31888;44.512;26.104;2022-10-26T10:25:35;24.60;71.40
46159;DHT22;31888;44.512;26.104;2022-10-26T10:27:52;24.70;71.60
46159;DHT22;31888;44.512;26.104;2022-10-26T10:29:58;24.70;71.10
46159;DHT22;31888;44.512;26.104;2022-10-26T10:32:13;24.70;70.90
46159;DHT22;31888;44.512;26.104;2022-10-26T10:34:20;24.60;71.40
46159;DHT22;31888;44.512;26.104;2022-10-26T10:36:27;24.70;70.50
46159;DHT22;31888;44.512;26.104;2022-10-26T10:38:38;24.70;70.70
46159;DHT22;31888;44.512;26.104;2022-10-26T10:40:48;24.80;70.40
46159;DHT22;31888;44.512;26.104;2022-10-26T10:43:02;24.70;70.80
46159;DHT22;31888;44.512;26.104;2022-10-26T10:45:19;24.80;70.50
46159;DHT22;31888;44.512;26.104;2022-10-26T10:47:26;24.70;69.90
46159;DHT22;31888;44.512;26.104;2022-10-26T10:49:32;24.40;70.10
46159;DHT22;31888;44.512;26.104;2022-10-26T10:51:38;24.50;70.10
46159;DHT22;31888;44.512;26.104;2022-10-26T10:53:47;24.50;70.00
46159;DHT22;31888;44.512;26.104;2022-10-26T10:56:22;24.50;69.90
46159;DHT22;31888;44.512;26.104;2022-10-26T10:58:30;24.20;70.40
46159;DHT22;31888;44.512;26.104;2022-10-26T11:00:36;24.20;70.40
46159;DHT22;31888;44.512;26.104;2022-10-26T11:03:13;24.20;70.20
46159;DHT22;31888;44.512;26.104;2022-10-26T11:05:23;24.10;69.90
46159;DHT22;31888;44.512;26.104;2022-10-26T11:07:33;24.00;70.30
46159;DHT22;31888;44.512;26.104;2022-10-26T11:09:43;24.10;70.20
46159;DHT22;31888;44.512;26.104;2022-10-26T11:11:51;24.10;69.90
46159;DHT22;31888;44.512;26.104;2022-10-26T11:14:01;24.10;70.30
46159;DHT22;31888;44.512;26.104;2022-10-26T11:16:12;24.10;70.00
46159;DHT22;31888;44.512;26.104;2022-10-26T11:18:17;24.10;69.50
46159;DHT22;31888;44.512;26.104;2022-10-26T11:20:23;24.10;69.50
46159;DHT22;31888;44.512;26.104;2022-10-26T11:22:33;23.90;70.00
46159;DHT22;31888;44.512;26.104;2022-10-26T11:24:43;23.90;70.40
46159;DHT22;31888;44.512;26.104;2022-10-26T11:26:51;23.90;70.20
46159;DHT22;31888;44.512;26.104;2022-10-26T11:29:00;23.80;70.80
46159;DHT22;31888;44.512;26.104;2022-10-26T11:31:10;23.80;71.70
46159;DHT22;31888;44.512;26.104;2022-10-26T11:33:19;23.80;71.90
46159;DHT22;31888;44.512;26.104;2022-10-26T11:35:28;23.90;71.90
46159;DHT22;31888;44.512;26.104;2022-10-26T11:37:40;24.00;71.40
46159;DHT22;31888;44.512;26.104;2022-10-26T11:39:57;23.90;71.00
46159;DHT22;31888;44.512;26.104;2022-10-26T11:42:10;23.80;71.20
46159;DHT22;31888;44.512;26.104;2022-10-26T11:44:20;23.70;71.50
46159;DHT22;31888;44.512;26.104;2022-10-26T11:46:31;23.70;71.80
46159;DHT22;31888;44.512;26.104;2022-10-26T11:48:42;23.70;71.80
46159;DHT22;31888;44.512;26.104;2022-10-26T11:50:50;23.60;71.10
46159;DHT22;31888;44.512;26.104;2022-10-26T11:52:59;23.50;70.80
46159;DHT22;31888;44.512;26.104;2022-10-26T11:55:08;23.60;70.90
46159;DHT22;31888;44.512;26.104;2022-10-26T11:57:14;23.50;71.10
46159;DHT22;31888;44.512;26.104;2022-10-26T11:59:20;23.60;71.10
46159;DHT22;31888;44.512;26.104;2022-10-26T12:01:29;23.70;71.20
46159;DHT22;31888;44.512;26.104;2022-10-26T12:03:36;23.80;70.80
46159;DHT22;31888;44.512;26.104;2022-10-26T12:05:47;23.90;69.50
46159;DHT22;31888;44.512;26.104;2022-10-26T12:07:54;23.90;69.60
46159;DHT22;31888;44.512;26.104;2022-10-26T12:10:01;23.90;69.70
46159;DHT22;31888;44.512;26.104;2022-10-26T12:12:13;24.00;69.60
46159;DHT22;31888;44.512;26.104;2022-10-26T12:14:23;23.90;70.00
46159;DHT22;31888;44.512;26.104;2022-10-26T12:16:40;23.70;70.10
46159;DHT22;31888;44.512;26.104;2022-10-26T12:18:49;23.70;70.00
46159;DHT22;31888;44.512;26.104;2022-10-26T12:20:59;23.60;70.20
46159;DHT22;31888;44.512;26.104;2022-10-26T12:23:09;23.60;69.80
46159;DHT22;31888;44.512;26.104;2022-10-26T12:25:30;23.80;68.80
46159;DHT22;31888;44.512;26.104;2022-10-26T12:27:51;23.90;68.40
46159;DHT22;31888;44.512;26.104;2022-10-26T12:30:21;23.90;68.10
46159;DHT22;31888;44.512;26.104;2022-10-26T12:35:02;24.10;67.70
46159;DHT22;31888;44.512;26.104;2022-10-26T12:37:22;24.10;68.10
46159;DHT22;31888;44.512;26.104;2022-10-26T12:39:28;24.00;68.10
46159;DHT22;31888;44.512;26.104;2022-10-26T12:41:36;24.10;67.60
46159;DHT22;31888;44.512;26.104;2022-10-26T12:43:43;24.10;69.20
46159;DHT22;31888;44.512;26.104;2022-10-26T12:48:38;24.20;68.80
46159;DHT22;31888;44.512;26.104;2022-10-26T12:50:43;24.10;68.30
46159;DHT22;31888;44.512;26.104;2022-10-26T12:52:50;24.20;68.50
46159;DHT22;31888;44.512;26.104;2022-10-26T12:57:38;23.80;70.60
46159;DHT22;31888;44.512;26.104;2022-10-26T12:59:52;23.80;71.20
46159;DHT22;31888;44.512;26.104;2022-10-26T13:02:30;23.70;71.40
46159;DHT22;31888;44.512;26.104;2022-10-26T13:04:53;23.60;72.00
46159;DHT22;31888;44.512;26.104;2022-10-26T13:07:17;23.60;71.80
46159;DHT22;31888;44.512;26.104;2022-10-26T13:09:24;23.60;72.10
46159;DHT22;31888;44.512;26.104;2022-10-26T13:11:31;23.50;72.10
46159;DHT22;31888;44.512;26.104;2022-10-26T13:13:37;23.50;72.40
46159;DHT22;31888;44.512;26.104;2022-10-26T13:15:53;23.50;75.60
46159;DHT22;31888;44.512;26.104;2022-10-26T13:18:00;23.50;72.80
46159;DHT22;31888;44.512;26.104;2022-10-26T13:20:13;23.50;73.10
46159;DHT22;31888;44.512;26.104;2022-10-26T13:22:20;23.40;72.60
46159;DHT22;31888;44.512;26.104;2022-10-26T13:24:27;23.40;73.20
46159;DHT22;31888;44.512;26.104;2022-10-26T13:29:16;23.40;74.70
46159;DHT22;31888;44.512;26.104;2022-10-26T13:31:52;23.50;75.90
46159;DHT22;31888;44.512;26.104;2022-10-26T13:34:00;23.40;74.70